sensor_id;sensor_type;location;lat;lon;timestamp;pressure;altitude;pressure_sealevel;temperature
61977;BMP280;45905;50.570;10.428;2024-02-23T00:01:57;95248.19;;;9.33
61977;BMP280;45905;50.570;10.428;2024-02-23T00:04:25;95267.63;;;9.32
61977;BMP280;45905;50.570;10.428;2024-02-23T00:06:52;95251.56;;;9.27
61977;BMP280;45905;50.570;10.428;2024-02-23T00:09:20;95240.91;;;9.25
61977;BMP280;45905;50.570;10.428;2024-02-23T00:11:48;95247.53;;;9.19
61977;BMP280;45905;50.570;10.428;2024-02-23T00:14:17;95289.72;;;9.19
61977;BMP280;45905;50.570;10.428;2024-02-23T00:16:46;95286.06;;;9.15
61977;BMP280;45905;50.570;10.428;2024-02-23T00:19:13;95293.31;;;9.05
61977;BMP280;45905;50.570;10.428;2024-02-23T00:21:42;95302.50;;;9.00
61977;BMP280;45905;50.570;10.428;2024-02-23T00:24:10;95297.44;;;9.00
61977;BMP280;45905;50.570;10.428;2024-02-23T00:26:37;95306.78;;;8.99
61977;BMP280;45905;50.570;10.428;2024-02-23T00:29:04;95313.63;;;8.93
61977;BMP280;45905;50.570;10.428;2024-02-23T00:31:32;95321.41;;;8.91
61977;BMP280;45905;50.570;10.428;2024-02-23T00:34:00;95340.63;;;8.86
61977;BMP280;45905;50.570;10.428;2024-02-23T00:36:28;95341.63;;;8.85
61977;BMP280;45905;50.570;10.428;2024-02-23T00:38:56;95368.41;;;8.86
61977;BMP280;45905;50.570;10.428;2024-02-23T00:41:23;95371.91;;;8.85
61977;BMP280;45905;50.570;10.428;2024-02-23T00:43:51;95378.16;;;8.82
61977;BMP280;45905;50.570;10.428;2024-02-23T00:46:18;95385.53;;;8.77
61977;BMP280;45905;50.570;10.428;2024-02-23T00:48:45;95392.38;;;8.71
61977;BMP280;45905;50.570;10.428;2024-02-23T00:51:13;95392.78;;;8.68
61977;BMP280;45905;50.570;10.428;2024-02-23T00:53:41;95401.13;;;8.68
61977;BMP280;45905;50.570;10.428;2024-02-23T00:56:11;95424.25;;;8.65
61977;BMP280;45905;50.570;10.428;2024-02-23T00:58:39;95418.84;;;8.56
61977;BMP280;45905;50.570;10.428;2024-02-23T01:01:07;95419.25;;;8.53
61977;BMP280;45905;50.570;10.428;2024-02-23T01:03:36;95421.00;;;8.52
61977;BMP280;45905;50.570;10.428;2024-02-23T01:06:04;95432.66;;;8.47
61977;BMP280;45905;50.570;10.428;2024-02-23T01:08:32;95456.16;;;8.47
61977;BMP280;45905;50.570;10.428;2024-02-23T01:11:00;95459.25;;;8.43
61977;BMP280;45905;50.570;10.428;2024-02-23T01:13:28;95458.66;;;8.41
61977;BMP280;45905;50.570;10.428;2024-02-23T01:15:55;95455.00;;;8.37
61977;BMP280;45905;50.570;10.428;2024-02-23T01:18:23;95459.09;;;8.32
61977;BMP280;45905;50.570;10.428;2024-02-23T01:20:51;95461.41;;;8.33
61977;BMP280;45905;50.570;10.428;2024-02-23T01:23:19;95470.94;;;8.31
61977;BMP280;45905;50.570;10.428;2024-02-23T01:25:47;95477.19;;;8.22
61977;BMP280;45905;50.570;10.428;2024-02-23T01:28:14;95477.75;;;8.18
61977;BMP280;45905;50.570;10.428;2024-02-23T01:30:42;95490.75;;;8.15
61977;BMP280;45905;50.570;10.428;2024-02-23T01:33:09;95498.72;;;8.12
61977;BMP280;45905;50.570;10.428;2024-02-23T01:35:37;95510.34;;;8.13
61977;BMP280;45905;50.570;10.428;2024-02-23T01:38:04;95500.66;;;8.10
61977;BMP280;45905;50.570;10.428;2024-02-23T01:40:32;95512.47;;;8.10
61977;BMP280;45905;50.570;10.428;2024-02-23T01:43:06;95501.81;;;8.08
61977;BMP280;45905;50.570;10.428;2024-02-23T01:45:34;95497.94;;;8.05
61977;BMP280;45905;50.570;10.428;2024-02-23T01:48:02;95502.59;;;8.02
61977;BMP280;45905;50.570;10.428;2024-02-23T01:50:30;95493.84;;;7.98
61977;BMP280;45905;50.570;10.428;2024-02-23T01:53:02;95499.50;;;8.00
61977;BMP280;45905;50.570;10.428;2024-02-23T01:55:31;95503.16;;;7.98
61977;BMP280;45905;50.570;10.428;2024-02-23T01:58:04;95514.19;;;7.97
61977;BMP280;45905;50.570;10.428;2024-02-23T02:00:35;95531.47;;;7.93
61977;BMP280;45905;50.570;10.428;2024-02-23T02:03:04;95543.31;;;7.86
61977;BMP280;45905;50.570;10.428;2024-02-23T02:05:39;95544.06;;;7.74
61977;BMP280;45905;50.570;10.428;2024-02-23T02:08:07;95529.31;;;7.65
61977;BMP280;45905;50.570;10.428;2024-02-23T02:10:34;95528.19;;;7.61
61977;BMP280;45905;50.570;10.428;2024-02-23T02:13:05;95511.88;;;7.57
61977;BMP280;45905;50.570;10.428;2024-02-23T02:15:33;95514.97;;;7.53
61977;BMP280;45905;50.570;10.428;2024-02-23T02:18:01;95522.75;;;7.51
61977;BMP280;45905;50.570;10.428;2024-02-23T02:20:32;95533.19;;;7.48
61977;BMP280;45905;50.570;10.428;2024-02-23T02:23:00;95544.41;;;7.46
61977;BMP280;45905;50.570;10.428;2024-02-23T02:25:28;95544.59;;;7.44
61977;BMP280;45905;50.570;10.428;2024-02-23T02:27:56;95539.38;;;7.46
61977;BMP280;45905;50.570;10.428;2024-02-23T02:30:23;95559.53;;;7.46
61977;BMP280;45905;50.570;10.428;2024-02-23T02:32:51;95559.16;;;7.43
61977;BMP280;45905;50.570;10.428;2024-02-23T02:35:18;95556.03;;;7.41
61977;BMP280;45905;50.570;10.428;2024-02-23T02:37:46;95554.84;;;7.37
61977;BMP280;45905;50.570;10.428;2024-02-23T02:40:15;95564.94;;;7.37
61977;BMP280;45905;50.570;10.428;2024-02-23T02:42:42;95575.41;;;7.34
61977;BMP280;45905;50.570;10.428;2024-02-23T02:45:09;95574.03;;;7.25
61977;BMP280;45905;50.570;10.428;2024-02-23T02:47:37;95595.28;;;7.16
61977;BMP280;45905;50.570;10.428;2024-02-23T02:50:05;95608.38;;;6.99
61977;BMP280;45905;50.570;10.428;2024-02-23T02:52:34;95607.97;;;6.89
61977;BMP280;45905;50.570;10.428;2024-02-23T02:55:01;95611.19;;;6.84
61977;BMP280;45905;50.570;10.428;2024-02-23T02:57:29;95612.53;;;6.80
61977;BMP280;45905;50.570;10.428;2024-02-23T02:59:57;95622.75;;;6.72
61977;BMP280;45905;50.570;10.428;2024-02-23T03:02:24;95634.53;;;6.65
61977;BMP280;45905;50.570;10.428;2024-02-23T03:04:52;95633.50;;;6.60
61977;BMP280;45905;50.570;10.428;2024-02-23T03:07:21;95633.13;;;6.56
61977;BMP280;45905;50.570;10.428;2024-02-23T03:09:49;95626.69;;;6.47
61977;BMP280;45905;50.570;10.428;2024-02-23T03:12:17;95637.06;;;6.38
61977;BMP280;45905;50.570;10.428;2024-02-23T03:14:45;95638.00;;;6.37
61977;BMP280;45905;50.570;10.428;2024-02-23T03:17:13;95630.22;;;6.32
61977;BMP280;45905;50.570;10.428;2024-02-23T03:19:41;95625.19;;;6.32
61977;BMP280;45905;50.570;10.428;2024-02-23T03:22:08;95633.13;;;6.29
61977;BMP280;45905;50.570;10.428;2024-02-23T03:24:36;95645.31;;;6.32
61977;BMP280;45905;50.570;10.428;2024-02-23T03:27:03;95652.06;;;6.32
61977;BMP280;45905;50.570;10.428;2024-02-23T03:29:32;95645.47;;;6.31
61977;BMP280;45905;50.570;10.428;2024-02-23T03:32:00;95646.25;;;6.31
61977;BMP280;45905;50.570;10.428;2024-02-23T03:34:29;95644.13;;;6.28
61977;BMP280;45905;50.570;10.428;2024-02-23T03:36:56;95664.59;;;6.26
61977;BMP280;45905;50.570;10.428;2024-02-23T03:39:25;95683.16;;;6.25
61977;BMP280;45905;50.570;10.428;2024-02-23T03:41:52;95685.06;;;6.23
61977;BMP280;45905;50.570;10.428;2024-02-23T03:44:20;95684.47;;;6.21
61977;BMP280;45905;50.570;10.428;2024-02-23T03:46:48;95688.13;;;6.18
61977;BMP280;45905;50.570;10.428;2024-02-23T03:49:17;95689.25;;;6.16
61977;BMP280;45905;50.570;10.428;2024-02-23T03:51:44;95687.09;;;6.13
61977;BMP280;45905;50.570;10.428;2024-02-23T03:54:12;95704.69;;;6.13
61977;BMP280;45905;50.570;10.428;2024-02-23T03:56:40;95704.69;;;6.13
61977;BMP280;45905;50.570;10.428;2024-02-23T03:59:09;95713.97;;;6.12
61977;BMP280;45905;50.570;10.428;2024-02-23T04:01:38;95708.97;;;6.12
61977;BMP280;45905;50.570;10.428;2024-02-23T04:04:07;95711.66;;;6.11
61977;BMP280;45905;50.570;10.428;2024-02-23T04:06:34;95713.13;;;6.06
61977;BMP280;45905;50.570;10.428;2024-02-23T04:09:03;95724.91;;;6.05
61977;BMP280;45905;50.570;10.428;2024-02-23T04:11:33;95721.22;;;6.01
61977;BMP280;45905;50.570;10.428;2024-02-23T04:14:01;95733.59;;;6.03
61977;BMP280;45905;50.570;10.428;2024-02-23T04:16:29;95743.03;;;6.01
61977;BMP280;45905;50.570;10.428;2024-02-23T04:18:57;95736.03;;;5.96
61977;BMP280;45905;50.570;10.428;2024-02-23T04:21:27;95736.97;;;5.95
61977;BMP280;45905;50.570;10.428;2024-02-23T04:23:54;95747.03;;;5.95
61977;BMP280;45905;50.570;10.428;2024-02-23T04:26:22;95740.47;;;5.94
61977;BMP280;45905;50.570;10.428;2024-02-23T04:28:50;95747.75;;;5.90
61977;BMP280;45905;50.570;10.428;2024-02-23T04:31:18;95743.84;;;5.87
61977;BMP280;45905;50.570;10.428;2024-02-23T04:33:45;95748.09;;;5.87
61977;BMP280;45905;50.570;10.428;2024-02-23T04:36:13;95750.03;;;5.85
61977;BMP280;45905;50.570;10.428;2024-02-23T04:38:40;95748.81;;;5.81
61977;BMP280;45905;50.570;10.428;2024-02-23T04:41:07;95749.94;;;5.78
61977;BMP280;45905;50.570;10.428;2024-02-23T04:43:35;95753.59;;;5.76
61977;BMP280;45905;50.570;10.428;2024-02-23T04:46:03;95765.72;;;5.72
61977;BMP280;45905;50.570;10.428;2024-02-23T04:48:31;95758.34;;;5.71
61977;BMP280;45905;50.570;10.428;2024-02-23T04:50:58;95758.34;;;5.71
61977;BMP280;45905;50.570;10.428;2024-02-23T04:53:27;95774.38;;;5.70
61977;BMP280;45905;50.570;10.428;2024-02-23T04:55:56;95792.31;;;5.67
61977;BMP280;45905;50.570;10.428;2024-02-23T04:58:24;95777.56;;;5.64
61977;BMP280;45905;50.570;10.428;2024-02-23T05:00:51;95787.78;;;5.63
61977;BMP280;45905;50.570;10.428;2024-02-23T05:03:19;95790.47;;;5.61
61977;BMP280;45905;50.570;10.428;2024-02-23T05:05:47;95799.31;;;5.57
61977;BMP280;45905;50.570;10.428;2024-02-23T05:08:16;95798.25;;;5.52
61977;BMP280;45905;50.570;10.428;2024-02-23T05:10:44;95806.78;;;5.51
61977;BMP280;45905;50.570;10.428;2024-02-23T05:13:12;95799.75;;;5.47
61977;BMP280;45905;50.570;10.428;2024-02-23T05:15:40;95787.53;;;5.44
61977;BMP280;45905;50.570;10.428;2024-02-23T05:18:08;95786.59;;;5.45
61977;BMP280;45905;50.570;10.428;2024-02-23T05:20:35;95787.19;;;5.47
61977;BMP280;45905;50.570;10.428;2024-02-23T05:23:03;95797.22;;;5.47
61977;BMP280;45905;50.570;10.428;2024-02-23T05:25:30;95800.53;;;5.47
61977;BMP280;45905;50.570;10.428;2024-02-23T05:27:58;95798.97;;;5.46
61977;BMP280;45905;50.570;10.428;2024-02-23T05:30:27;95795.44;;;5.41
61977;BMP280;45905;50.570;10.428;2024-02-23T05:32:58;95798.88;;;5.40
61977;BMP280;45905;50.570;10.428;2024-02-23T05:35:25;95794.19;;;5.37
61977;BMP280;45905;50.570;10.428;2024-02-23T05:37:54;95794.38;;;5.35
61977;BMP280;45905;50.570;10.428;2024-02-23T05:40:22;95790.50;;;5.33
61977;BMP280;45905;50.570;10.428;2024-02-23T05:42:50;95793.59;;;5.35
61977;BMP280;45905;50.570;10.428;2024-02-23T05:45:17;95797.66;;;5.36
61977;BMP280;45905;50.570;10.428;2024-02-23T05:47:44;95797.66;;;5.36
61977;BMP280;45905;50.570;10.428;2024-02-23T05:50:15;95804.25;;;5.37
61977;BMP280;45905;50.570;10.428;2024-02-23T05:52:43;95803.84;;;5.33
61977;BMP280;45905;50.570;10.428;2024-02-23T05:55:10;95804.59;;;5.34
61977;BMP280;45905;50.570;10.428;2024-02-23T05:57:37;95798.03;;;5.33
61977;BMP280;45905;50.570;10.428;2024-02-23T06:00:05;95804.00;;;5.32
61977;BMP280;45905;50.570;10.428;2024-02-23T06:02:38;95799.75;;;5.32
61977;BMP280;45905;50.570;10.428;2024-02-23T06:05:06;95798.97;;;5.32
61977;BMP280;45905;50.570;10.428;2024-02-23T06:07:35;95811.69;;;5.31
61977;BMP280;45905;50.570;10.428;2024-02-23T06:10:05;95810.13;;;5.30
61977;BMP280;45905;50.570;10.428;2024-02-23T06:12:32;95821.91;;;5.29
61977;BMP280;45905;50.570;10.428;2024-02-23T06:15:00;95827.09;;;5.28
61977;BMP280;45905;50.570;10.428;2024-02-23T06:17:28;95814.91;;;5.25
61977;BMP280;45905;50.570;10.428;2024-02-23T06:19:56;95823.19;;;5.25
61977;BMP280;45905;50.570;10.428;2024-02-23T06:22:26;95840.00;;;5.25
61977;BMP280;45905;50.570;10.428;2024-02-23T06:24:54;95838.44;;;5.24
61977;BMP280;45905;50.570;10.428;2024-02-23T06:27:22;95856.94;;;5.23
61977;BMP280;45905;50.570;10.428;2024-02-23T06:29:49;95859.47;;;5.23
61977;BMP280;45905;50.570;10.428;2024-02-23T06:32:17;95856.16;;;5.22
61977;BMP280;45905;50.570;10.428;2024-02-23T06:34:45;95861.97;;;5.23
61977;BMP280;45905;50.570;10.428;2024-02-23T06:37:13;95877.81;;;5.23
61977;BMP280;45905;50.570;10.428;2024-02-23T06:39:41;95879.94;;;5.26
61977;BMP280;45905;50.570;10.428;2024-02-23T06:42:09;95884.97;;;5.26
61977;BMP280;45905;50.570;10.428;2024-02-23T06:44:37;95894.06;;;5.27
61977;BMP280;45905;50.570;10.428;2024-02-23T06:47:05;95893.28;;;5.27
61977;BMP280;45905;50.570;10.428;2024-02-23T06:49:33;95900.81;;;5.27
61977;BMP280;45905;50.570;10.428;2024-02-23T06:52:01;95903.50;;;5.25
61977;BMP280;45905;50.570;10.428;2024-02-23T06:54:29;95899.25;;;5.26
61977;BMP280;45905;50.570;10.428;2024-02-23T06:56:57;95909.47;;;5.24
61977;BMP280;45905;50.570;10.428;2024-02-23T06:59:24;95904.00;;;5.21
61977;BMP280;45905;50.570;10.428;2024-02-23T07:01:53;95913.25;;;5.20
61977;BMP280;45905;50.570;10.428;2024-02-23T07:04:21;95911.38;;;5.22
61977;BMP280;45905;50.570;10.428;2024-02-23T07:06:49;95929.38;;;5.26
61977;BMP280;45905;50.570;10.428;2024-02-23T07:09:17;95926.84;;;5.26
61977;BMP280;45905;50.570;10.428;2024-02-23T07:11:45;95936.72;;;5.27
61977;BMP280;45905;50.570;10.428;2024-02-23T07:14:12;95956.66;;;5.29
61977;BMP280;45905;50.570;10.428;2024-02-23T07:16:41;95955.69;;;5.30
61977;BMP280;45905;50.570;10.428;2024-02-23T07:19:09;95959.31;;;5.27
61977;BMP280;45905;50.570;10.428;2024-02-23T07:21:37;95962.44;;;5.29
61977;BMP280;45905;50.570;10.428;2024-02-23T07:24:09;95959.00;;;5.30
61977;BMP280;45905;50.570;10.428;2024-02-23T07:26:37;95962.28;;;5.31
61977;BMP280;45905;50.570;10.428;2024-02-23T07:29:05;95961.16;;;5.33
61977;BMP280;45905;50.570;10.428;2024-02-23T07:31:33;95963.69;;;5.33
61977;BMP280;45905;50.570;10.428;2024-02-23T07:34:00;95968.69;;;5.33
61977;BMP280;45905;50.570;10.428;2024-02-23T07:36:28;95970.84;;;5.36
61977;BMP280;45905;50.570;10.428;2024-02-23T07:38:56;95968.34;;;5.36
61977;BMP280;45905;50.570;10.428;2024-02-23T07:41:23;95969.13;;;5.36
61977;BMP280;45905;50.570;10.428;2024-02-23T07:43:51;95958.91;;;5.38
61977;BMP280;45905;50.570;10.428;2024-02-23T07:46:19;95973.03;;;5.39
61977;BMP280;45905;50.570;10.428;2024-02-23T07:48:52;95958.75;;;5.39
61977;BMP280;45905;50.570;10.428;2024-02-23T07:51:19;95960.31;;;5.40
61977;BMP280;45905;50.570;10.428;2024-02-23T07:53:47;95956.06;;;5.41
61977;BMP280;45905;50.570;10.428;2024-02-23T07:56:14;95959.00;;;5.44
61977;BMP280;45905;50.570;10.428;2024-02-23T07:58:42;95950.38;;;5.47
61977;BMP280;45905;50.570;10.428;2024-02-23T08:01:10;95951.78;;;5.49
61977;BMP280;45905;50.570;10.428;2024-02-23T08:03:38;95954.69;;;5.52
61977;BMP280;45905;50.570;10.428;2024-02-23T08:06:10;95956.25;;;5.53
61977;BMP280;45905;50.570;10.428;2024-02-23T08:08:37;95947.63;;;5.56
61977;BMP280;45905;50.570;10.428;2024-02-23T08:11:05;95958.13;;;5.59
61977;BMP280;45905;50.570;10.428;2024-02-23T08:13:33;95968.75;;;5.61
61977;BMP280;45905;50.570;10.428;2024-02-23T08:16:01;95974.53;;;5.62
61977;BMP280;45905;50.570;10.428;2024-02-23T08:18:29;95965.44;;;5.61
61977;BMP280;45905;50.570;10.428;2024-02-23T08:20:56;95956.81;;;5.63
61977;BMP280;45905;50.570;10.428;2024-02-23T08:23:24;95965.75;;;5.66
61977;BMP280;45905;50.570;10.428;2024-02-23T08:25:52;95965.59;;;5.67
61977;BMP280;45905;50.570;10.428;2024-02-23T08:28:21;95972.59;;;5.71
61977;BMP280;45905;50.570;10.428;2024-02-23T08:30:49;95979.81;;;5.74
61977;BMP280;45905;50.570;10.428;2024-02-23T08:33:16;95973.66;;;5.77
61977;BMP280;45905;50.570;10.428;2024-02-23T08:35:44;95968.28;;;5.80
61977;BMP280;45905;50.570;10.428;2024-02-23T08:38:11;95969.50;;;5.84
61977;BMP280;45905;50.570;10.428;2024-02-23T08:40:39;95973.22;;;5.88
61977;BMP280;45905;50.570;10.428;2024-02-23T08:43:07;95968.81;;;5.90
61977;BMP280;45905;50.570;10.428;2024-02-23T08:45:34;95973.50;;;5.92
61977;BMP280;45905;50.570;10.428;2024-02-23T08:48:03;95968.13;;;5.95
61977;BMP280;45905;50.570;10.428;2024-02-23T08:50:31;95963.72;;;5.97
61977;BMP280;45905;50.570;10.428;2024-02-23T08:52:59;95967.78;;;5.98
61977;BMP280;45905;50.570;10.428;2024-02-23T08:55:28;95968.41;;;6.00
61977;BMP280;45905;50.570;10.428;2024-02-23T08:57:56;95973.41;;;6.00
61977;BMP280;45905;50.570;10.428;2024-02-23T09:00:23;95969.00;;;6.02
61977;BMP280;45905;50.570;10.428;2024-02-23T09:02:51;95970.19;;;6.06
61977;BMP280;45905;50.570;10.428;2024-02-23T09:05:18;95974.72;;;6.10
61977;BMP280;45905;50.570;10.428;2024-02-23T09:07:46;95974.19;;;6.15
61977;BMP280;45905;50.570;10.428;2024-02-23T09:10:14;95969.44;;;6.20
61977;BMP280;45905;50.570;10.428;2024-02-23T09:12:42;95963.25;;;6.22
61977;BMP280;45905;50.570;10.428;2024-02-23T09:15:10;95966.31;;;6.18
61977;BMP280;45905;50.570;10.428;2024-02-23T09:17:39;95965.00;;;6.22
61977;BMP280;45905;50.570;10.428;2024-02-23T09:20:07;95964.31;;;6.28
61977;BMP280;45905;50.570;10.428;2024-02-23T09:22:36;95974.38;;;6.28
61977;BMP280;45905;50.570;10.428;2024-02-23T09:25:05;95975.94;;;6.28
61977;BMP280;45905;50.570;10.428;2024-02-23T09:27:33;95972.09;;;6.32
61977;BMP280;45905;50.570;10.428;2024-02-23T09:30:04;95972.38;;;6.37
61977;BMP280;45905;50.570;10.428;2024-02-23T09:32:32;95979.53;;;6.40
61977;BMP280;45905;50.570;10.428;2024-02-23T09:34:59;95976.09;;;6.41
61977;BMP280;45905;50.570;10.428;2024-02-23T09:37:28;95973.75;;;6.40
61977;BMP280;45905;50.570;10.428;2024-02-23T09:39:56;95971.22;;;6.40
61977;BMP280;45905;50.570;10.428;2024-02-23T09:42:24;95975.13;;;6.42
61977;BMP280;45905;50.570;10.428;2024-02-23T09:44:59;95983.91;;;6.46
61977;BMP280;45905;50.570;10.428;2024-02-23T09:47:28;95986.81;;;6.49
61977;BMP280;45905;50.570;10.428;2024-02-23T09:49:56;95989.78;;;6.53
61977;BMP280;45905;50.570;10.428;2024-02-23T09:52:24;95987.50;;;6.58
61977;BMP280;45905;50.570;10.428;2024-02-23T09:54:52;95981.19;;;6.62
61977;BMP280;45905;50.570;10.428;2024-02-23T09:57:20;95989.34;;;6.64
61977;BMP280;45905;50.570;10.428;2024-02-23T09:59:49;95993.03;;;6.67
61977;BMP280;45905;50.570;10.428;2024-02-23T10:02:17;95993.31;;;6.72
61977;BMP280;45905;50.570;10.428;2024-02-23T10:04:46;95990.41;;;6.75
61977;BMP280;45905;50.570;10.428;2024-02-23T10:07:17;95998.22;;;6.80
61977;BMP280;45905;50.570;10.428;2024-02-23T10:09:45;95992.25;;;6.81
61977;BMP280;45905;50.570;10.428;2024-02-23T10:12:15;95992.06;;;6.83
61977;BMP280;45905;50.570;10.428;2024-02-23T10:14:43;95992.47;;;6.86
61977;BMP280;45905;50.570;10.428;2024-02-23T10:17:10;96004.88;;;6.87
61977;BMP280;45905;50.570;10.428;2024-02-23T10:19:38;96007.56;;;6.86
61977;BMP280;45905;50.570;10.428;2024-02-23T10:22:06;96007.91;;;6.83
61977;BMP280;45905;50.570;10.428;2024-02-23T10:24:34;96007.56;;;6.86
61977;BMP280;45905;50.570;10.428;2024-02-23T10:27:03;96014.88;;;6.81
61977;BMP280;45905;50.570;10.428;2024-02-23T10:29:31;96015.66;;;6.82
61977;BMP280;45905;50.570;10.428;2024-02-23T10:31:59;96000.56;;;6.82
61977;BMP280;45905;50.570;10.428;2024-02-23T10:34:31;96009.13;;;6.87
61977;BMP280;45905;50.570;10.428;2024-02-23T10:36:59;96015.97;;;6.93
61977;BMP280;45905;50.570;10.428;2024-02-23T10:39:30;96009.28;;;7.00
61977;BMP280;45905;50.570;10.428;2024-02-23T10:42:03;96005.50;;;7.10
61977;BMP280;45905;50.570;10.428;2024-02-23T10:44:32;96008.34;;;7.21
61977;BMP280;45905;50.570;10.428;2024-02-23T10:47:01;95996.84;;;7.33
61977;BMP280;45905;50.570;10.428;2024-02-23T10:49:29;95998.28;;;7.42
61977;BMP280;45905;50.570;10.428;2024-02-23T10:51:57;96011.34;;;7.51
61977;BMP280;45905;50.570;10.428;2024-02-23T10:54:27;96009.41;;;7.53
61977;BMP280;45905;50.570;10.428;2024-02-23T10:56:55;96008.91;;;7.64
61977;BMP280;45905;50.570;10.428;2024-02-23T10:59:24;96013.03;;;7.71
61977;BMP280;45905;50.570;10.428;2024-02-23T11:01:54;96008.88;;;7.78
61977;BMP280;45905;50.570;10.428;2024-02-23T11:04:26;96012.19;;;7.85
61977;BMP280;45905;50.570;10.428;2024-02-23T11:06:55;96014.41;;;7.94
61977;BMP280;45905;50.570;10.428;2024-02-23T11:09:32;96008.66;;;8.00
61977;BMP280;45905;50.570;10.428;2024-02-23T11:12:04;95994.53;;;8.05
61977;BMP280;45905;50.570;10.428;2024-02-23T11:14:39;96005.97;;;8.08
61977;BMP280;45905;50.570;10.428;2024-02-23T11:17:07;96008.94;;;8.11
61977;BMP280;45905;50.570;10.428;2024-02-23T11:19:49;96004.66;;;8.12
61977;BMP280;45905;50.570;10.428;2024-02-23T11:22:34;96002.69;;;8.07
61977;BMP280;45905;50.570;10.428;2024-02-23T11:25:07;96007.72;;;8.07
61977;BMP280;45905;50.570;10.428;2024-02-23T11:27:38;96009.84;;;8.04
61977;BMP280;45905;50.570;10.428;2024-02-23T11:30:11;96011.31;;;7.99
61977;BMP280;45905;50.570;10.428;2024-02-23T11:32:44;96019.81;;;7.91
61977;BMP280;45905;50.570;10.428;2024-02-23T11:35:17;96003.69;;;7.86
61977;BMP280;45905;50.570;10.428;2024-02-23T11:40:27;96012.59;;;7.88
61977;BMP280;45905;50.570;10.428;2024-02-23T11:42:55;96009.25;;;7.81
61977;BMP280;45905;50.570;10.428;2024-02-23T11:45:28;95996.25;;;7.78
61977;BMP280;45905;50.570;10.428;2024-02-23T11:47:56;96003.56;;;7.73
61977;BMP280;45905;50.570;10.428;2024-02-23T11:50:24;95989.06;;;7.75
61977;BMP280;45905;50.570;10.428;2024-02-23T11:52:51;95987.66;;;7.73
61977;BMP280;45905;50.570;10.428;2024-02-23T11:55:19;95992.34;;;7.76
61977;BMP280;45905;50.570;10.428;2024-02-23T11:57:51;96003.63;;;7.80
61977;BMP280;45905;50.570;10.428;2024-02-23T12:00:32;95995.66;;;7.76
61977;BMP280;45905;50.570;10.428;2024-02-23T12:02:59;95995.06;;;7.74
61977;BMP280;45905;50.570;10.428;2024-02-23T12:05:28;95993.75;;;7.78
61977;BMP280;45905;50.570;10.428;2024-02-23T12:07:56;95992.81;;;7.85
61977;BMP280;45905;50.570;10.428;2024-02-23T12:10:25;95987.41;;;7.88
61977;BMP280;45905;50.570;10.428;2024-02-23T12:12:54;95976.34;;;7.89
61977;BMP280;45905;50.570;10.428;2024-02-23T12:15:23;95991.13;;;7.92
61977;BMP280;45905;50.570;10.428;2024-02-23T12:17:52;95988.41;;;7.94
61977;BMP280;45905;50.570;10.428;2024-02-23T12:20:19;95987.22;;;7.90
61977;BMP280;45905;50.570;10.428;2024-02-23T12:22:48;95991.72;;;7.94
61977;BMP280;45905;50.570;10.428;2024-02-23T12:25:17;95995.50;;;8.04
61977;BMP280;45905;50.570;10.428;2024-02-23T12:27:44;95996.31;;;8.11
61977;BMP280;45905;50.570;10.428;2024-02-23T12:30:15;95994.19;;;8.15
61977;BMP280;45905;50.570;10.428;2024-02-23T12:32:44;95991.88;;;8.13
61977;BMP280;45905;50.570;10.428;2024-02-23T12:35:12;95990.13;;;8.14
61977;BMP280;45905;50.570;10.428;2024-02-23T12:37:40;95995.94;;;8.14
61977;BMP280;45905;50.570;10.428;2024-02-23T12:40:11;96000.22;;;8.14
61977;BMP280;45905;50.570;10.428;2024-02-23T12:42:40;95986.63;;;8.15
61977;BMP280;45905;50.570;10.428;2024-02-23T12:45:08;95991.28;;;8.11
61977;BMP280;45905;50.570;10.428;2024-02-23T12:47:35;95982.19;;;8.17
61977;BMP280;45905;50.570;10.428;2024-02-23T12:50:04;95982.44;;;8.21
61977;BMP280;45905;50.570;10.428;2024-02-23T12:52:33;95987.69;;;8.26
61977;BMP280;45905;50.570;10.428;2024-02-23T12:55:01;95991.75;;;8.27
61977;BMP280;45905;50.570;10.428;2024-02-23T12:57:30;95991.75;;;8.27
61977;BMP280;45905;50.570;10.428;2024-02-23T12:59:57;95989.84;;;8.29
61977;BMP280;45905;50.570;10.428;2024-02-23T13:02:25;95997.16;;;8.24
61977;BMP280;45905;50.570;10.428;2024-02-23T13:04:53;96000.66;;;8.23
61977;BMP280;45905;50.570;10.428;2024-02-23T13:07:23;96004.16;;;8.22
61977;BMP280;45905;50.570;10.428;2024-02-23T13:09:54;95995.41;;;8.25
61977;BMP280;45905;50.570;10.428;2024-02-23T13:12:21;95989.84;;;8.29
61977;BMP280;45905;50.570;10.428;2024-02-23T13:14:49;95990.03;;;8.34
61977;BMP280;45905;50.570;10.428;2024-02-23T13:17:17;95983.69;;;8.38
61977;BMP280;45905;50.570;10.428;2024-02-23T13:19:45;95992.38;;;8.36
61977;BMP280;45905;50.570;10.428;2024-02-23T13:22:31;95990.63;;;8.36
61977;BMP280;45905;50.570;10.428;2024-02-23T13:24:59;95987.94;;;8.38
61977;BMP280;45905;50.570;10.428;2024-02-23T13:27:28;95994.13;;;8.35
61977;BMP280;45905;50.570;10.428;2024-02-23T13:29:56;95984.81;;;8.36
61977;BMP280;45905;50.570;10.428;2024-02-23T13:32:24;95992.34;;;8.29
61977;BMP280;45905;50.570;10.428;2024-02-23T13:34:51;95984.78;;;8.29
61977;BMP280;45905;50.570;10.428;2024-02-23T13:37:20;95990.97;;;8.27
61977;BMP280;45905;50.570;10.428;2024-02-23T13:39:48;95991.75;;;8.27
61977;BMP280;45905;50.570;10.428;2024-02-23T13:42:15;95989.25;;;8.27
61977;BMP280;45905;50.570;10.428;2024-02-23T13:44:43;95994.50;;;8.32
61977;BMP280;45905;50.570;10.428;2024-02-23T13:47:11;95997.59;;;8.34
61977;BMP280;45905;50.570;10.428;2024-02-23T13:49:39;96001.66;;;8.29
61977;BMP280;45905;50.570;10.428;2024-02-23T13:52:07;95996.16;;;8.19
61977;BMP280;45905;50.570;10.428;2024-02-23T13:54:35;95988.44;;;8.20
61977;BMP280;45905;50.570;10.428;2024-02-23T13:57:02;95983.97;;;8.22
61977;BMP280;45905;50.570;10.428;2024-02-23T13:59:30;95987.31;;;8.29
61977;BMP280;45905;50.570;10.428;2024-02-23T14:01:57;95990.81;;;8.35
61977;BMP280;45905;50.570;10.428;2024-02-23T14:04:25;95993.75;;;8.38
61977;BMP280;45905;50.570;10.428;2024-02-23T14:06:53;95994.94;;;8.42
61977;BMP280;45905;50.570;10.428;2024-02-23T14:09:21;95999.63;;;8.45
61977;BMP280;45905;50.570;10.428;2024-02-23T14:11:48;95999.59;;;8.38
61977;BMP280;45905;50.570;10.428;2024-02-23T14:14:16;96004.00;;;8.30
61977;BMP280;45905;50.570;10.428;2024-02-23T14:16:44;95991.97;;;8.32
61977;BMP280;45905;50.570;10.428;2024-02-23T14:19:12;95986.75;;;8.34